Time;durP1;ratioP1;P1;durP2;ratioP2;P2;SDS_P1;SDS_P2;PMS_P1;PMS_P2;Temp;Humidity;BMP_temperature;BMP_pressure;BME280_temperature;BME280_humidity;BME280_pressure;Samples;Min_cycle;Max_cycle;Signal;HPM_P1;HPM_P2
2022/08/12 00:42:59;;;;;;;5.28;0.70;;;;;;;;;;4841227;29;20046;-53
2022/08/12 00:46:29;;;;;;;5.72;0.75;;;;;;;;;;4841103;29;20038;-54
2022/08/12 00:48:14;;;;;;;2.58;0.68;;;;;;;;;;4838453;29;20038;-47
2022/08/12 00:50:42;;;;;;;4.72;0.63;;;;;;;;;;4822807;29;20402;-49
2022/08/12 00:53:09;;;;;;;3.97;0.80;;;;;;;;;;4822983;29;20055;-49
2022/08/12 00:55:43;;;;;;;1.40;0.60;;;;;;;;;;4822817;29;20043;-44
2022/08/12 00:58:16;;;;;;;2.80;0.80;;;;;;;;;;4822883;29;20053;-50
2022/08/12 01:00:44;;;;;;;3.70;1.17;;;;;;;;;;4822925;29;20137;-50
2022/08/12 01:03:17;;;;;;;3.53;0.95;;;;;;;;;;4822969;29;20038;-51
2022/08/12 01:11:33;;;;;;;2.55;0.82;;;;;;;;;;4826315;29;20042;-44
2022/08/12 01:14:02;;;;;;;3.00;0.70;;;;;;;;;;4826130;29;20054;-46
2022/08/12 01:16:29;;;;;;;1.50;0.82;;;;;;;;;;4826143;29;20047;-51
2022/08/12 01:18:57;;;;;;;5.03;0.80;;;;;;;;;;4826152;29;20050;-51
2022/08/12 01:21:27;;;;;;;2.83;0.75;;;;;;;;;;4825961;29;20285;-42
2022/08/12 01:24:28;;;;;;;2.80;1.02;;;;;;;;;;4826221;29;20124;-43
2022/08/12 01:27:01;;;;;;;1.13;0.73;;;;;;;;;;4825241;29;20061;-48
2022/08/12 01:29:30;;;;;;;2.83;0.80;;;;;;;;;;4826090;29;20133;-47
2022/08/12 01:32:04;;;;;;;1.35;0.75;;;;;;;;;;4825880;29;20578;-53
2022/08/12 01:34:35;;;;;;;3.53;1.00;;;;;;;;;;4825974;29;20059;-47
2022/08/12 01:37:06;;;;;;;2.88;1.10;;;;;;;;;;4825591;29;20073;-46
2022/08/12 01:39:41;;;;;;;3.13;1.52;;;;;;;;;;4825992;29;20046;-52
2022/08/12 01:42:42;;;;;;;3.90;1.10;;;;;;;;;;4825731;29;20045;-50
2022/08/12 01:45:11;;;;;;;2.83;1.30;;;;;;;;;;4825746;29;20633;-49
2022/08/12 01:48:07;;;;;;;2.53;0.95;;;;;;;;;;4825329;29;20563;-47
2022/08/12 01:50:53;;;;;;;2.45;1.00;;;;;;;;;;4818888;29;20061;-48
2022/08/12 01:53:43;;;;;;;5.82;0.85;;;;;;;;;;4825443;29;20039;-49
2022/08/12 01:56:20;;;;;;;2.20;0.93;;;;;;;;;;4825550;29;20050;-50
2022/08/12 02:01:40;;;;;;;4.15;2.35;;;;;;;;;;4825343;29;20389;-50
2022/08/12 02:13:52;;;;;;;2.03;1.00;;;;;;;;;;4825093;29;20042;-46
2022/08/12 02:16:49;;;;;;;2.63;1.20;;;;;;;;;;4824314;29;20402;-44
2022/08/12 02:19:46;;;;;;;2.60;0.82;;;;;;;;;;4823911;29;20082;-45
2022/08/12 02:22:37;;;;;;;2.95;1.30;;;;;;;;;;4824906;29;20077;-47
2022/08/12 02:25:28;;;;;;;101.50;54.67;;;;;;;;;;4822472;29;20534;-49
2022/08/12 02:27:57;;;;;;;5.72;2.45;;;;;;;;;;4824971;29;20404;-48
2022/08/12 02:30:35;;;;;;;3.35;1.25;;;;;;;;;;4824872;29;20096;-44
2022/08/12 02:33:09;;;;;;;3.70;0.80;;;;;;;;;;4824472;29;20095;-45
2022/08/12 02:35:38;;;;;;;5.72;0.82;;;;;;;;;;4824792;29;20060;-48
2022/08/12 02:38:08;;;;;;;2.38;0.80;;;;;;;;;;4824512;29;20568;-44
2022/08/12 02:40:38;;;;;;;2.35;0.85;;;;;;;;;;4824770;29;20045;-44
2022/08/12 02:43:27;;;;;;;1.92;0.80;;;;;;;;;;4824762;29;20049;-43
2022/08/12 02:45:57;;;;;;;4.60;1.27;;;;;;;;;;4825089;29;20054;-47
2022/08/12 02:48:38;;;;;;;3.47;0.60;;;;;;;;;;4829143;29;20038;-43
2022/08/12 02:51:11;;;;;;;2.47;1.00;;;;;;;;;;4842915;29;20049;-48
2022/08/12 02:53:39;;;;;;;3.37;0.90;;;;;;;;;;4842648;29;20090;-43
2022/08/12 02:56:06;;;;;;;2.92;1.00;;;;;;;;;;4842698;29;20045;-45
2022/08/12 02:58:35;;;;;;;3.97;1.20;;;;;;;;;;4842384;29;20406;-44
2022/08/12 03:01:12;;;;;;;3.38;1.08;;;;;;;;;;4842827;29;20528;-44
2022/08/12 03:03:40;;;;;;;3.40;1.13;;;;;;;;;;4841157;29;20475;-44
2022/08/12 03:06:14;;;;;;;4.78;1.10;;;;;;;;;;4842715;29;20061;-44
2022/08/12 03:08:42;;;;;;;3.92;1.02;;;;;;;;;;4842162;29;20106;-43
2022/08/12 03:11:24;;;;;;;20.52;8.00;;;;;;;;;;4842579;29;20129;-43
2022/08/12 03:13:59;;;;;;;3.35;1.20;;;;;;;;;;4842694;29;20129;-44
2022/08/12 03:16:29;;;;;;;5.03;1.25;;;;;;;;;;4842266;29;20045;-44
2022/08/12 03:18:59;;;;;;;2.70;1.20;;;;;;;;;;4842089;29;20046;-45
2022/08/12 03:21:26;;;;;;;4.93;1.20;;;;;;;;;;4842374;29;20098;-45
2022/08/12 03:24:17;;;;;;;6.20;1.38;;;;;;;;;;4842043;29;20061;-46
2022/08/12 03:26:47;;;;;;;1.45;0.75;;;;;;;;;;4828405;29;20051;-44
2022/08/12 03:29:15;;;;;;;7.43;0.98;;;;;;;;;;4824025;29;20038;-50
2022/08/12 03:31:42;;;;;;;3.78;1.35;;;;;;;;;;4824026;29;20038;-45
2022/08/12 03:34:15;;;;;;;2.08;0.95;;;;;;;;;;4823838;29;20076;-43
2022/08/12 03:36:42;;;;;;;27.88;13.27;;;;;;;;;;4824035;29;20049;-46
2022/08/12 03:42:00;;;;;;;5.47;1.30;;;;;;;;;;4823806;29;20536;-50
2022/08/12 04:01:26;;;;;;;6.47;1.50;;;;;;;;;;4823815;29;20046;-44
2022/08/12 04:03:54;;;;;;;2.55;1.10;;;;;;;;;;4823811;29;20122;-44
2022/08/12 04:06:25;;;;;;;21.25;9.82;;;;;;;;;;4822667;29;20414;-45
2022/08/12 04:09:04;;;;;;;6.57;2.30;;;;;;;;;;4823495;29;20047;-44
2022/08/12 04:14:31;;;;;;;4.85;1.50;;;;;;;;;;4823459;29;20077;-43
2022/08/12 04:16:58;;;;;;;4.18;1.27;;;;;;;;;;4823493;29;20395;-43
2022/08/12 04:19:28;;;;;;;4.93;1.48;;;;;;;;;;4823713;29;20042;-46
2022/08/12 04:21:56;;;;;;;4.97;1.40;;;;;;;;;;4823663;29;20519;-44
2022/08/12 04:24:30;;;;;;;;;;;;;;;;;;4823576;29;20080;-47
2022/08/12 04:27:00;;;;;;;4.55;1.45;;;;;;;;;;4823120;29;19947;-43
2022/08/12 04:29:30;;;;;;;2.63;1.08;;;;;;;;;;4823427;29;20054;-44
2022/08/12 04:32:17;;;;;;;9.13;2.15;;;;;;;;;;4823198;29;20077;-44
2022/08/12 04:34:45;;;;;;;6.30;1.70;;;;;;;;;;4823123;29;20050;-44
2022/08/12 04:37:12;;;;;;;3.67;1.40;;;;;;;;;;4823239;29;20043;-43
2022/08/12 04:39:40;;;;;;;1.88;1.13;;;;;;;;;;4822617;29;20035;-43
2022/08/12 04:42:07;;;;;;;2.55;1.15;;;;;;;;;;4823101;29;20046;-43
2022/08/12 04:44:35;;;;;;;4.10;1.30;;;;;;;;;;4822930;29;20467;-44
2022/08/12 04:47:02;;;;;;;6.25;1.25;;;;;;;;;;4822834;29;20050;-46
2022/08/12 04:49:32;;;;;;;2.75;1.38;;;;;;;;;;4835320;29;20042;-45
2022/08/12 04:51:59;;;;;;;3.33;1.15;;;;;;;;;;4840832;29;20081;-43
2022/08/12 04:54:27;;;;;;;7.35;1.20;;;;;;;;;;4841091;29;20045;-42
2022/08/12 04:56:55;;;;;;;2.83;1.20;;;;;;;;;;4840991;29;20050;-43
2022/08/12 04:59:31;;;;;;;4.88;1.00;;;;;;;;;;4840816;29;20092;-43
2022/08/12 05:02:16;;;;;;;82.28;48.10;;;;;;;;;;4841184;29;20054;-48
2022/08/12 05:04:56;;;;;;;5.25;2.45;;;;;;;;;;4841022;29;20138;-43
2022/08/12 05:07:27;;;;;;;3.92;1.30;;;;;;;;;;4840673;29;20102;-44
2022/08/12 05:09:54;;;;;;;3.90;1.27;;;;;;;;;;4841215;29;20163;-47
2022/08/12 05:12:43;;;;;;;3.05;1.10;;;;;;;;;;4840765;29;20042;-43
2022/08/12 05:15:14;;;;;;;4.10;1.35;;;;;;;;;;4840973;29;20050;-43
2022/08/12 05:17:55;;;;;;;3.65;1.40;;;;;;;;;;4840953;29;20511;-46
2022/08/12 05:20:28;;;;;;;5.23;1.40;;;;;;;;;;4823316;29;20526;-45
2022/08/12 05:23:10;;;;;;;5.93;1.65;;;;;;;;;;4822693;29;20051;-51
2022/08/12 05:25:41;;;;;;;5.32;1.25;;;;;;;;;;4806560;29;20519;-44
2022/08/12 05:28:14;;;;;;;4.10;1.30;;;;;;;;;;4822276;29;20038;-44
2022/08/12 05:30:42;;;;;;;4.50;1.13;;;;;;;;;;4822336;29;20534;-48
2022/08/12 05:33:11;;;;;;;7.90;2.17;;;;;;;;;;4822477;29;20503;-44
2022/08/12 05:35:42;;;;;;;5.95;1.35;;;;;;;;;;4822421;29;20058;-46
2022/08/12 05:40:57;;;;;;;3.22;1.58;;;;;;;;;;4822614;29;20396;-46
2022/08/12 05:43:24;;;;;;;7.00;1.58;;;;;;;;;;4822492;29;20039;-45
2022/08/12 05:45:52;;;;;;;5.03;1.42;;;;;;;;;;4820906;29;20039;-45
2022/08/12 05:48:19;;;;;;;4.43;1.40;;;;;;;;;;4823272;29;20042;-46
2022/08/12 05:50:47;;;;;;;5.88;1.13;;;;;;;;;;4839762;29;20761;-49
2022/08/12 05:53:15;;;;;;;6.10;1.88;;;;;;;;;;4841876;29;20050;-50
2022/08/12 05:55:42;;;;;;;3.67;1.30;;;;;;;;;;4841857;29;20046;-55
2022/08/12 05:58:09;;;;;;;5.20;1.67;;;;;;;;;;4842011;29;20046;-49
2022/08/12 06:00:36;;;;;;;4.07;1.30;;;;;;;;;;4841879;29;20045;-50
2022/08/12 06:03:07;;;;;;;3.85;1.27;;;;;;;;;;4843972;29;20128;-45
2022/08/12 06:05:37;;;;;;;3.50;1.02;;;;;;;;;;4843694;29;20125;-45
2022/08/12 06:08:23;;;;;;;3.70;1.10;;;;;;;;;;4840714;29;20511;-46
2022/08/12 06:10:51;;;;;;;4.32;1.25;;;;;;;;;;4824029;29;20079;-49
2022/08/12 06:13:18;;;;;;;5.63;1.60;;;;;;;;;;4825313;29;20525;-54
2022/08/12 06:16:06;;;;;;;5.90;1.38;;;;;;;;;;4825031;29;20046;-49
2022/08/12 06:18:33;;;;;;;2.88;1.10;;;;;;;;;;4825015;29;20047;-47
2022/08/12 06:21:01;;;;;;;4.82;1.25;;;;;;;;;;4825413;29;20046;-51
2022/08/12 06:23:28;;;;;;;6.43;1.30;;;;;;;;;;4825067;29;20050;-46
2022/08/12 06:25:57;;;;;;;5.28;1.23;;;;;;;;;;4825278;29;20070;-45
2022/08/12 06:28:25;;;;;;;3.47;1.83;;;;;;;;;;4825122;29;20080;-49
2022/08/12 06:30:52;;;;;;;3.28;1.15;;;;;;;;;;4825134;29;20050;-51
2022/08/12 06:33:43;;;;;;;5.78;1.38;;;;;;;;;;4824593;29;20043;-46
2022/08/12 06:36:30;;;;;;;4.00;1.40;;;;;;;;;;4824667;29;20107;-46
2022/08/12 06:38:59;;;;;;;6.18;1.58;;;;;;;;;;4824693;29;20043;-46
2022/08/12 06:44:32;;;;;;;2.72;1.30;;;;;;;;;;4824625;29;20066;-51
2022/08/12 06:46:59;;;;;;;4.00;1.50;;;;;;;;;;4824886;29;20423;-45
2022/08/12 06:49:29;;;;;;;2.95;1.17;;;;;;;;;;4836618;29;20053;-45
2022/08/12 06:51:56;;;;;;;5.53;1.70;;;;;;;;;;4843171;29;20038;-45
2022/08/12 06:54:24;;;;;;;3.50;1.38;;;;;;;;;;4842960;29;20502;-45
2022/08/12 06:56:57;;;;;;;2.70;1.27;;;;;;;;;;4842807;29;20071;-45
2022/08/12 06:59:44;;;;;;;5.82;1.45;;;;;;;;;;4842639;29;20065;-45
2022/08/12 07:02:11;;;;;;;3.45;1.27;;;;;;;;;;4842419;29;20049;-45
2022/08/12 07:04:39;;;;;;;3.38;1.20;;;;;;;;;;4842531;29;20042;-44
2022/08/12 07:07:08;;;;;;;6.22;1.52;;;;;;;;;;4842576;29;20049;-45
2022/08/12 07:09:37;;;;;;;3.28;1.30;;;;;;;;;;4842490;29;20098;-46
2022/08/12 07:12:26;;;;;;;2.65;1.25;;;;;;;;;;4842351;29;20041;-46
2022/08/12 07:14:56;;;;;;;5.28;1.40;;;;;;;;;;4842797;29;20499;-46
2022/08/12 07:17:23;;;;;;;5.93;1.35;;;;;;;;;;4842512;29;20046;-49
2022/08/12 07:19:52;;;;;;;4.30;1.20;;;;;;;;;;4842645;29;20414;-45
2022/08/12 07:22:21;;;;;;;4.43;1.23;;;;;;;;;;4842289;29;20073;-48
2022/08/12 07:25:29;;;;;;;4.90;1.48;;;;;;;;;;4842138;29;20042;-47
2022/08/12 07:27:39;;;;;;;3.55;1.30;;;;;;;;;;4841846;29;20049;-45
2022/08/12 07:30:08;;;;;;;3.20;1.15;;;;;;;;;;4842415;29;20049;-46
2022/08/12 07:32:36;;;;;;;2.78;1.40;;;;;;;;;;4839589;29;20391;-53
2022/08/12 07:35:03;;;;;;;3.80;1.40;;;;;;;;;;4823629;29;20134;-47
2022/08/12 07:37:33;;;;;;;3.65;1.33;;;;;;;;;;4823586;29;20046;-54
2022/08/12 07:40:01;;;;;;;6.00;1.33;;;;;;;;;;4823925;29;20056;-48
2022/08/12 07:42:28;;;;;;;3.63;1.20;;;;;;;;;;4823639;29;20047;-45
2022/08/12 07:44:55;;;;;;;3.33;1.30;;;;;;;;;;4824219;29;20129;-48
2022/08/12 07:47:23;;;;;;;8.70;2.03;;;;;;;;;;4824150;29;20106;-45
2022/08/12 07:49:53;;;;;;;3.35;1.42;;;;;;;;;;4838312;29;20046;-47
2022/08/12 07:52:37;;;;;;;4.05;1.35;;;;;;;;;;4841816;29;20045;-44
2022/08/12 07:55:05;;;;;;;4.57;1.27;;;;;;;;;;4841714;29;20080;-49
2022/08/12 07:57:32;;;;;;;7.70;1.80;;;;;;;;;;4841785;29;20525;-45
2022/08/12 08:00:03;;;;;;;4.40;1.33;;;;;;;;;;4841778;29;20413;-55
2022/08/12 08:02:35;;;;;;;5.20;1.45;;;;;;;;;;4841647;29;20050;-45
2022/08/12 08:05:04;;;;;;;3.38;1.40;;;;;;;;;;4841744;29;20125;-47
2022/08/12 08:07:31;;;;;;;8.55;1.50;;;;;;;;;;4841045;29;20050;-48
2022/08/12 08:10:01;;;;;;;6.03;1.80;;;;;;;;;;4840345;29;20081;-45
2022/08/12 08:15:15;;;;;;;4.10;1.02;;;;;;;;;;4840714;29;20054;-47
2022/08/12 08:18:15;;;;;;;5.05;1.42;;;;;;;;;;4841503;29;20098;-46
2022/08/12 08:20:54;;;;;;;3.83;1.63;;;;;;;;;;4839249;29;20554;-48
2022/08/12 08:23:22;;;;;;;5.43;1.42;;;;;;;;;;4841302;29;20062;-46
2022/08/12 08:26:01;;;;;;;3.60;1.02;;;;;;;;;;4841314;29;20054;-48
2022/08/12 08:28:28;;;;;;;3.85;1.23;;;;;;;;;;4841244;29;20046;-47
2022/08/12 08:30:55;;;;;;;295.20;63.15;;;;;;;;;;4841503;29;20510;-44
2022/08/12 08:33:23;;;;;;;5.53;1.65;;;;;;;;;;4841430;29;20079;-50
2022/08/12 08:36:13;;;;;;;2.90;0.95;;;;;;;;;;4840605;29;20042;-42
2022/08/12 08:38:50;;;;;;;5.47;1.40;;;;;;;;;;4841045;29;20053;-46
2022/08/12 08:44:36;;;;;;;4.50;1.10;;;;;;;;;;4841269;29;20491;-45
2022/08/12 08:47:06;;;;;;;4.78;1.25;;;;;;;;;;4841130;29;20081;-47
2022/08/12 08:49:35;;;;;;;2.00;0.95;;;;;;;;;;4828145;29;20555;-53
2022/08/12 08:52:05;;;;;;;2.65;1.35;;;;;;;;;;4822761;29;20050;-44
2022/08/12 08:54:33;;;;;;;1.92;1.05;;;;;;;;;;4822741;29;20054;-44
2022/08/12 08:57:03;;;;;;;2.92;1.40;;;;;;;;;;4822758;29;20054;-46
2022/08/12 08:59:30;;;;;;;3.47;1.10;;;;;;;;;;4822948;29;20046;-45
2022/08/12 09:01:58;;;;;;;3.58;1.23;;;;;;;;;;4822787;29;20042;-45
2022/08/12 09:04:26;;;;;;;4.28;1.02;;;;;;;;;;4823007;29;20410;-42
2022/08/12 09:07:16;;;;;;;2.05;0.80;;;;;;;;;;4822705;29;20042;-51
2022/08/12 09:10:06;;;;;;;4.65;1.10;;;;;;;;;;4822244;29;20077;-46
2022/08/12 09:15:34;;;;;;;2.30;0.85;;;;;;;;;;4822817;29;20057;-44
2022/08/12 09:18:22;;;;;;;1.85;0.80;;;;;;;;;;4822640;29;20495;-48
2022/08/12 09:20:59;;;;;;;2.80;1.15;;;;;;;;;;4822780;29;20046;-47
2022/08/12 09:23:27;;;;;;;4.53;0.88;;;;;;;;;;4822548;29;20050;-43
2022/08/12 09:26:17;;;;;;;3.55;1.20;;;;;;;;;;4824425;29;20430;-45
2022/08/12 09:28:49;;;;;;;3.13;1.10;;;;;;;;;;4825733;29;20507;-45
2022/08/12 09:31:21;;;;;;;5.20;1.33;;;;;;;;;;4825748;29;20142;-43
2022/08/12 09:34:09;;;;;;;1.50;0.90;;;;;;;;;;4825731;29;20491;-43
2022/08/12 09:36:58;;;;;;;2.40;0.88;;;;;;;;;;4826032;29;20061;-44
2022/08/12 09:39:44;;;;;;;2.40;0.90;;;;;;;;;;4825519;29;20054;-45
2022/08/12 09:45:37;;;;;;;2.78;0.93;;;;;;;;;;4825647;29;20039;-42
2022/08/12 09:48:26;;;;;;;2.40;0.95;;;;;;;;;;4830130;29;20038;-50
2022/08/12 09:51:01;;;;;;;2.38;0.90;;;;;;;;;;4844154;29;20081;-44
2022/08/12 09:53:28;;;;;;;2.30;1.00;;;;;;;;;;4844158;29;20405;-46
2022/08/12 09:56:10;;;;;;;1.42;0.70;;;;;;;;;;4843681;29;20490;-42
2022/08/12 09:58:58;;;;;;;1.95;0.70;;;;;;;;;;4843790;29;20046;-42
2022/08/12 10:01:28;;;;;;;1.98;0.73;;;;;;;;;;4843946;29;20072;-45
2022/08/12 10:04:16;;;;;;;2.15;0.88;;;;;;;;;;4843759;29;20456;-44
2022/08/12 10:06:46;;;;;;;3.85;0.90;;;;;;;;;;4843175;29;20514;-45
2022/08/12 10:09:20;;;;;;;1.67;0.75;;;;;;;;;;4843554;29;20570;-46
2022/08/12 10:14:43;;;;;;;1.50;0.68;;;;;;;;;;4843655;29;20071;-41
2022/08/12 10:17:21;;;;;;;3.20;0.80;;;;;;;;;;4843445;29;20057;-42
2022/08/12 10:19:51;;;;;;;1.90;0.80;;;;;;;;;;4843081;29;20306;-43
2022/08/12 10:22:19;;;;;;;3.05;0.90;;;;;;;;;;4843575;29;20064;-43
2022/08/12 10:31:05;;;;;;;1.45;0.70;;;;;;;;;;4843495;29;20397;-46
2022/08/12 10:33:44;;;;;;;1.33;0.60;;;;;;;;;;4843373;29;20075;-42
2022/08/12 10:36:33;;;;;;;2.58;0.80;;;;;;;;;;4842381;29;20475;-42
2022/08/12 10:39:11;;;;;;;5.68;0.95;;;;;;;;;;4842654;29;20046;-44
2022/08/12 10:45:04;;;;;;;1.95;0.60;;;;;;;;;;4842288;29;20451;-43
2022/08/12 10:47:35;;;;;;;3.20;0.70;;;;;;;;;;4842893;29;20049;-43
2022/08/12 10:50:24;;;;;;;2.22;0.70;;;;;;;;;;4806680;29;20054;-42
2022/08/12 10:53:11;;;;;;;2.05;0.80;;;;;;;;;;4806119;29;20043;-42
2022/08/12 10:55:45;;;;;;;3.95;0.75;;;;;;;;;;4805357;29;20038;-44
2022/08/12 10:58:22;;;;;;;2.72;0.60;;;;;;;;;;4806434;29;20061;-43
2022/08/12 11:00:57;;;;;;;3.08;0.88;;;;;;;;;;4806689;29;20167;-43
2022/08/12 11:03:45;;;;;;;1.23;0.63;;;;;;;;;;4806113;29;20054;-45
2022/08/12 11:06:32;;;;;;;1.17;0.70;;;;;;;;;;4806196;29;20039;-42
2022/08/12 11:09:34;;;;;;;2.00;0.90;;;;;;;;;;4805341;29;20047;-42
2022/08/12 11:12:24;;;;;;;1.42;0.60;;;;;;;;;;4806046;29;20500;-43
2022/08/12 11:15:11;;;;;;;2.30;0.77;;;;;;;;;;4806174;29;20074;-43
2022/08/12 11:17:49;;;;;;;2.78;0.60;;;;;;;;;;4806134;29;20058;-43
2022/08/12 11:20:23;;;;;;;;;;;;;;;;;;4806150;29;20130;-42
2022/08/12 11:23:00;;;;;;;1.90;0.75;;;;;;;;;;4805552;29;20522;-43
2022/08/12 11:25:30;;;;;;;;;;;;;;;;;;4805801;29;20500;-43
2022/08/12 11:28:18;;;;;;;1.92;0.65;;;;;;;;;;4805869;29;19993;-42
2022/08/12 11:31:01;;;;;;;3.20;0.60;;;;;;;;;;4805797;29;20116;-46
2022/08/12 11:33:28;;;;;;;1.27;0.70;;;;;;;;;;4805853;29;20047;-43
2022/08/12 11:36:18;;;;;;;1.52;0.70;;;;;;;;;;4805548;29;20508;-43
2022/08/12 11:38:49;;;;;;;1.00;0.55;;;;;;;;;;4809679;29;20046;-44
2022/08/12 11:41:20;;;;;;;1.33;0.60;;;;;;;;;;4824070;29;20053;-43
2022/08/12 11:43:59;;;;;;;1.50;0.52;;;;;;;;;;4824247;29;20129;-46
2022/08/12 11:46:47;;;;;;;1.40;0.50;;;;;;;;;;4823743;29;20098;-43
2022/08/12 11:49:23;;;;;;;3.58;0.90;;;;;;;;;;4834720;29;20258;-49
2022/08/12 11:52:02;;;;;;;3.22;1.00;;;;;;;;;;4842206;29;20057;-44
2022/08/12 11:54:30;;;;;;;1.45;0.77;;;;;;;;;;4841264;29;20050;-43
2022/08/12 11:57:01;;;;;;;4.28;0.85;;;;;;;;;;4841716;29;20049;-42
2022/08/12 11:59:48;;;;;;;1.55;0.60;;;;;;;;;;4841496;29;20054;-44
2022/08/12 12:02:37;;;;;;;2.28;1.20;;;;;;;;;;4841328;29;20042;-45
2022/08/12 12:05:07;;;;;;;1.73;0.60;;;;;;;;;;4841689;29;20502;-45
2022/08/12 12:07:41;;;;;;;4.13;0.88;;;;;;;;;;4841535;29;20074;-42
2022/08/12 12:10:29;;;;;;;1.63;0.73;;;;;;;;;;4841667;29;20042;-45
2022/08/12 12:12:56;;;;;;;2.05;0.68;;;;;;;;;;4841915;29;20094;-43
2022/08/12 12:15:24;;;;;;;1.02;0.57;;;;;;;;;;4841205;29;20041;-43
2022/08/12 12:18:18;;;;;;;;;;;;;;;;;;4841880;29;20057;-44
2022/08/12 12:20:46;;;;;;;2.15;0.70;;;;;;;;;;4841018;29;19928;-45
2022/08/12 12:23:14;;;;;;;1.80;0.73;;;;;;;;;;4841158;29;20136;-42
2022/08/12 12:25:55;;;;;;;1.40;0.80;;;;;;;;;;4841527;29;20099;-43
2022/08/12 12:28:34;;;;;;;1.45;0.70;;;;;;;;;;4841352;29;20057;-44
2022/08/12 12:31:05;;;;;;;1.77;0.70;;;;;;;;;;4841094;29;20567;-44
2022/08/12 12:33:55;;;;;;;1.33;0.70;;;;;;;;;;4840984;29;20049;-43
2022/08/12 12:36:25;;;;;;;1.67;0.60;;;;;;;;;;4841082;29;20060;-45
2022/08/12 12:38:57;;;;;;;0.77;0.55;;;;;;;;;;4841465;29;20417;-44
2022/08/12 12:41:26;;;;;;;2.45;0.80;;;;;;;;;;4841440;29;20048;-44
2022/08/12 12:44:14;;;;;;;1.38;0.60;;;;;;;;;;4840881;29;20064;-44
2022/08/12 12:47:02;;;;;;;3.25;1.83;;;;;;;;;;4841254;29;20050;-43
2022/08/12 12:49:29;;;;;;;2.67;0.90;;;;;;;;;;4828742;29;20046;-45
2022/08/12 12:51:59;;;;;;;1.73;0.90;;;;;;;;;;4822892;29;20043;-44
2022/08/12 12:54:51;;;;;;;1.83;0.73;;;;;;;;;;4822916;29;20049;-44
2022/08/12 12:57:19;;;;;;;1.75;0.70;;;;;;;;;;4822612;29;20415;-43
2022/08/12 13:00:15;;;;;;;;;;;;;;;;;;4823426;29;20115;-43
2022/08/12 13:02:55;;;;;;;3.55;1.10;;;;;;;;;;4824786;29;20016;-42
2022/08/12 13:05:30;;;;;;;1.55;0.50;;;;;;;;;;4826010;29;20053;-44
2022/08/12 13:08:23;;;;;;;4.80;0.90;;;;;;;;;;4826139;29;20054;-43
2022/08/12 13:11:03;;;;;;;1.58;0.70;;;;;;;;;;4826238;29;20057;-44
2022/08/12 13:13:33;;;;;;;7.40;3.70;;;;;;;;;;4826555;29;20442;-43
2022/08/12 13:16:21;;;;;;;2.92;0.80;;;;;;;;;;4825772;29;20464;-44
2022/08/12 13:18:50;;;;;;;2.33;0.70;;;;;;;;;;4825947;29;20058;-47
2022/08/12 13:21:18;;;;;;;1.58;0.70;;;;;;;;;;4825876;29;20050;-44
2022/08/12 13:24:01;;;;;;;2.65;0.63;;;;;;;;;;4826221;29;20511;-42
2022/08/12 13:26:36;;;;;;;2.50;0.68;;;;;;;;;;4826053;29;20046;-44
2022/08/12 13:29:03;;;;;;;2.80;0.80;;;;;;;;;;4826243;29;20050;-44
2022/08/12 13:31:31;;;;;;;2.70;0.63;;;;;;;;;;4825776;29;20042;-43
2022/08/12 13:34:14;;;;;;;3.05;0.77;;;;;;;;;;4825963;29;20567;-45
2022/08/12 13:37:03;;;;;;;2.92;0.80;;;;;;;;;;4825922;29;20133;-44
2022/08/12 13:39:37;;;;;;;1.83;1.05;;;;;;;;;;4825770;29;20057;-43
2022/08/12 13:42:08;;;;;;;1.70;0.77;;;;;;;;;;4825291;29;20075;-42
2022/08/12 13:44:41;;;;;;;3.38;0.70;;;;;;;;;;4825678;29;20046;-43
2022/08/12 13:47:09;;;;;;;1.60;0.63;;;;;;;;;;4825858;29;20042;-48
2022/08/12 13:49:48;;;;;;;17.25;7.30;;;;;;;;;;4839941;29;20052;-43
2022/08/12 13:52:22;;;;;;;2.10;1.00;;;;;;;;;;4843653;29;20095;-44
2022/08/12 13:54:49;;;;;;;3.65;0.70;;;;;;;;;;4837840;29;20492;-43
2022/08/12 13:57:24;;;;;;;2.33;1.00;;;;;;;;;;4807128;29;20047;-44
2022/08/12 13:59:53;;;;;;;1.88;0.73;;;;;;;;;;4807189;29;20133;-44
2022/08/12 14:02:37;;;;;;;1.95;0.82;;;;;;;;;;4807090;29;20054;-45
2022/08/12 14:05:08;;;;;;;2.90;0.90;;;;;;;;;;4807345;29;20051;-45
2022/08/12 14:08:02;;;;;;;2.05;0.90;;;;;;;;;;4807507;29;20073;-50
2022/08/12 14:10:35;;;;;;;2.90;1.13;;;;;;;;;;4807325;29;20047;-45
2022/08/12 14:13:12;;;;;;;6.57;1.10;;;;;;;;;;4807026;29;20100;-45
2022/08/12 14:16:01;;;;;;;2.47;1.10;;;;;;;;;;4807204;29;20131;-44
2022/08/12 14:18:31;;;;;;;2.60;0.90;;;;;;;;;;4807156;29;20384;-50
2022/08/12 14:21:08;;;;;;;3.00;0.70;;;;;;;;;;4807404;29;20580;-43
2022/08/12 14:23:51;;;;;;;2.15;1.05;;;;;;;;;;4806746;29;20063;-44
2022/08/12 14:26:37;;;;;;;2.70;1.10;;;;;;;;;;4806710;29;20057;-42
2022/08/12 14:29:05;;;;;;;1.55;0.80;;;;;;;;;;4807044;29;20047;-43
2022/08/12 14:31:33;;;;;;;1.10;0.85;;;;;;;;;;4806934;29;20563;-45
2022/08/12 14:34:01;;;;;;;3.42;0.68;;;;;;;;;;4806809;29;20047;-45
2022/08/12 14:36:31;;;;;;;4.18;0.77;;;;;;;;;;4806702;29;20042;-44
2022/08/12 14:39:03;;;;;;;2.15;0.80;;;;;;;;;;4806726;29;20043;-43
2022/08/12 14:41:33;;;;;;;2.05;0.75;;;;;;;;;;4806455;29;20174;-43
2022/08/12 14:44:14;;;;;;;1.73;0.80;;;;;;;;;;4806701;29;20047;-44
2022/08/12 14:47:02;;;;;;;2.53;0.90;;;;;;;;;;4806711;29;20095;-44
2022/08/12 14:49:35;;;;;;;1.23;0.80;;;;;;;;;;4832476;29;20073;-44
2022/08/12 14:52:23;;;;;;;3.25;0.90;;;;;;;;;;4842825;29;20094;-44
2022/08/12 14:55:13;;;;;;;2.67;1.10;;;;;;;;;;4842609;29;20098;-46
2022/08/12 14:58:00;;;;;;;2.33;0.95;;;;;;;;;;4842346;29;20049;-43
2022/08/12 15:03:26;;;;;;;2.33;0.85;;;;;;;;;;4842278;29;20410;-59
2022/08/12 15:06:15;;;;;;;4.60;1.60;;;;;;;;;;4842618;29;20132;-43
2022/08/12 15:09:04;;;;;;;6.38;1.45;;;;;;;;;;4842175;29;20563;-45
2022/08/12 15:11:32;;;;;;;2.13;1.05;;;;;;;;;;4826104;29;20058;-47
2022/08/12 15:14:20;;;;;;;1.83;1.02;;;;;;;;;;4842234;29;20124;-45
2022/08/12 15:16:48;;;;;;;4.43;1.35;;;;;;;;;;4841854;29;20605;-43
2022/08/12 15:19:15;;;;;;;2.53;1.10;;;;;;;;;;4840168;29;20442;-44
2022/08/12 15:22:03;;;;;;;5.30;1.45;;;;;;;;;;4841828;29;20066;-44
2022/08/12 15:24:51;;;;;;;6.25;1.95;;;;;;;;;;4841603;29;20121;-44
2022/08/12 15:27:18;;;;;;;34.72;23.02;;;;;;;;;;4842000;29;20053;-58
2022/08/12 15:30:07;;;;;;;5.13;3.13;;;;;;;;;;4842158;29;20112;-44
2022/08/12 15:32:36;;;;;;;2.90;0.98;;;;;;;;;;4841638;29;20756;-45
2022/08/12 15:35:06;;;;;;;2.10;0.73;;;;;;;;;;4824107;29;20042;-54
2022/08/12 15:37:38;;;;;;;2.60;1.08;;;;;;;;;;4823534;29;20506;-44
2022/08/12 15:40:25;;;;;;;2.67;0.93;;;;;;;;;;4823580;29;20053;-49
2022/08/12 15:43:02;;;;;;;1.65;0.90;;;;;;;;;;4823840;29;20062;-45
2022/08/12 15:45:37;;;;;;;3.80;0.90;;;;;;;;;;4823519;29;20042;-45
2022/08/12 15:48:06;;;;;;;2.17;0.93;;;;;;;;;;4825385;29;20078;-44
2022/08/12 15:50:46;;;;;;;4.22;1.00;;;;;;;;;;4841460;29;20050;-43
2022/08/12 15:56:10;;;;;;;1.95;0.80;;;;;;;;;;4824206;29;19931;-46
2022/08/12 15:58:42;;;;;;;2.05;1.25;;;;;;;;;;4841445;29;20128;-45
2022/08/12 16:01:15;;;;;;;2.78;1.08;;;;;;;;;;4841681;29;20049;-44
2022/08/12 16:03:45;;;;;;;2.28;1.15;;;;;;;;;;4841260;29;20046;-46
2022/08/12 16:06:26;;;;;;;1.95;1.13;;;;;;;;;;4841571;29;20076;-48
2022/08/12 16:09:18;;;;;;;3.00;1.00;;;;;;;;;;4840999;29;20129;-47
2022/08/12 16:11:47;;;;;;;5.65;1.45;;;;;;;;;;4841037;29;20074;-45
2022/08/12 16:14:15;;;;;;;4.15;1.30;;;;;;;;;;4840288;29;20077;-44
2022/08/12 16:16:42;;;;;;;1.65;0.93;;;;;;;;;;4841450;29;20046;-54
2022/08/12 16:19:18;;;;;;;4.13;1.70;;;;;;;;;;4826129;29;20053;-44
2022/08/12 16:22:09;;;;;;;2.65;1.10;;;;;;;;;;4841413;29;20045;-47
2022/08/12 16:24:42;;;;;;;3.03;1.10;;;;;;;;;;4840647;29;20089;-43
2022/08/12 16:27:09;;;;;;;3.20;1.00;;;;;;;;;;4841367;29;20054;-44
2022/08/12 16:29:40;;;;;;;2.80;1.00;;;;;;;;;;4841258;29;20653;-47
2022/08/12 16:32:22;;;;;;;2.88;1.23;;;;;;;;;;4841280;29;20503;-44
2022/08/12 16:34:51;;;;;;;3.92;1.15;;;;;;;;;;4840263;29;20423;-46
2022/08/12 16:37:24;;;;;;;3.33;1.27;;;;;;;;;;4841316;29;20046;-45
2022/08/12 16:40:12;;;;;;;4.18;1.30;;;;;;;;;;4839852;29;20145;-51
2022/08/12 16:42:41;;;;;;;3.42;1.15;;;;;;;;;;4840742;29;20474;-44
2022/08/12 16:45:33;;;;;;;33.33;18.67;;;;;;;;;;4841014;29;20049;-44
2022/08/12 16:48:24;;;;;;;5.82;2.03;;;;;;;;;;4837561;29;20073;-46
2022/08/12 16:51:08;;;;;;;2.05;1.25;;;;;;;;;;4823078;29;20038;-44
2022/08/12 16:53:38;;;;;;;7.85;2.30;;;;;;;;;;4822553;29;20046;-46
2022/08/12 16:56:18;;;;;;;2.20;1.05;;;;;;;;;;4822929;29;20046;-50
2022/08/12 16:58:48;;;;;;;4.97;1.17;;;;;;;;;;4822532;29;20110;-44
2022/08/12 17:01:18;;;;;;;3.90;1.30;;;;;;;;;;4822715;29;20467;-46
2022/08/12 17:04:08;;;;;;;2.55;1.15;;;;;;;;;;4821814;29;20043;-44
2022/08/12 17:06:42;;;;;;;2.63;1.33;;;;;;;;;;4820992;29;20042;-45
2022/08/12 17:09:10;;;;;;;;;;;;;;;;;;4822666;29;20054;-47
2022/08/12 17:11:45;;;;;;;4.32;1.42;;;;;;;;;;4822471;29;19925;-45
2022/08/12 17:14:16;;;;;;;2.97;1.50;;;;;;;;;;4822826;29;20076;-45
2022/08/12 17:16:53;;;;;;;7.03;1.17;;;;;;;;;;4822696;29;20050;-53
2022/08/12 17:19:24;;;;;;;2.80;1.52;;;;;;;;;;4822634;29;20432;-44
2022/08/12 17:22:13;;;;;;;3.08;1.10;;;;;;;;;;4822595;29;20414;-45
2022/08/12 17:24:44;;;;;;;2.58;1.50;;;;;;;;;;4822465;29;20051;-44
2022/08/12 17:27:23;;;;;;;4.40;1.40;;;;;;;;;;4822779;29;20042;-43
2022/08/12 17:29:56;;;;;;;3.72;1.55;;;;;;;;;;4822587;29;20046;-43